sensor_id;sensor_type;location;lat;lon;timestamp;temperature;humidity
70706;DHT22;59320;52.316;10.870;2024-01-06T00:00:38;5.50;99.90
70706;DHT22;59320;52.316;10.870;2024-01-06T00:03:05;5.50;99.90
70706;DHT22;59320;52.316;10.870;2024-01-06T00:05:32;5.50;99.90
70706;DHT22;59320;52.316;10.870;2024-01-06T00:08:00;5.60;99.90
70706;DHT22;59320;52.316;10.870;2024-01-06T00:10:28;5.60;99.90
70706;DHT22;59320;52.316;10.870;2024-01-06T00:12:56;5.60;99.90
70706;DHT22;59320;52.316;10.870;2024-01-06T00:15:23;5.70;99.90
70706;DHT22;59320;52.316;10.870;2024-01-06T00:17:50;5.70;99.90
70706;DHT22;59320;52.316;10.870;2024-01-06T00:20:17;5.70;99.90
70706;DHT22;59320;52.316;10.870;2024-01-06T00:22:44;5.70;99.90
70706;DHT22;59320;52.316;10.870;2024-01-06T00:25:11;5.60;99.90
70706;DHT22;59320;52.316;10.870;2024-01-06T00:27:40;5.60;99.90
70706;DHT22;59320;52.316;10.870;2024-01-06T00:30:08;5.70;99.90
70706;DHT22;59320;52.316;10.870;2024-01-06T00:32:35;5.70;99.90
70706;DHT22;59320;52.316;10.870;2024-01-06T00:35:03;5.80;99.90
70706;DHT22;59320;52.316;10.870;2024-01-06T00:37:30;5.70;99.90
70706;DHT22;59320;52.316;10.870;2024-01-06T00:39:57;5.70;99.90
70706;DHT22;59320;52.316;10.870;2024-01-06T00:42:24;5.60;99.90
70706;DHT22;59320;52.316;10.870;2024-01-06T00:44:53;5.60;99.90
70706;DHT22;59320;52.316;10.870;2024-01-06T00:47:20;5.60;99.90
70706;DHT22;59320;52.316;10.870;2024-01-06T00:49:50;5.70;99.90
70706;DHT22;59320;52.316;10.870;2024-01-06T00:52:17;5.50;99.90
70706;DHT22;59320;52.316;10.870;2024-01-06T00:54:44;5.40;99.90
70706;DHT22;59320;52.316;10.870;2024-01-06T00:57:12;5.60;99.90
70706;DHT22;59320;52.316;10.870;2024-01-06T00:59:39;5.50;99.90
70706;DHT22;59320;52.316;10.870;2024-01-06T01:02:07;5.60;99.90
70706;DHT22;59320;52.316;10.870;2024-01-06T01:04:34;5.60;99.90
70706;DHT22;59320;52.316;10.870;2024-01-06T01:07:02;5.60;99.90
70706;DHT22;59320;52.316;10.870;2024-01-06T01:09:29;5.60;99.90
70706;DHT22;59320;52.316;10.870;2024-01-06T01:11:56;5.50;99.90
70706;DHT22;59320;52.316;10.870;2024-01-06T01:14:23;5.40;99.90
70706;DHT22;59320;52.316;10.870;2024-01-06T01:16:50;5.40;99.90
70706;DHT22;59320;52.316;10.870;2024-01-06T01:19:19;5.50;99.90
70706;DHT22;59320;52.316;10.870;2024-01-06T01:21:46;5.50;99.90
70706;DHT22;59320;52.316;10.870;2024-01-06T01:24:13;5.60;99.90
70706;DHT22;59320;52.316;10.870;2024-01-06T01:26:41;5.60;99.90
70706;DHT22;59320;52.316;10.870;2024-01-06T01:29:08;5.60;99.90
70706;DHT22;59320;52.316;10.870;2024-01-06T01:31:35;5.10;99.90
70706;DHT22;59320;52.316;10.870;2024-01-06T01:34:02;5.60;99.90
70706;DHT22;59320;52.316;10.870;2024-01-06T01:36:31;5.60;99.90
70706;DHT22;59320;52.316;10.870;2024-01-06T01:38:58;5.70;99.90
70706;DHT22;59320;52.316;10.870;2024-01-06T01:41:25;5.70;99.90
70706;DHT22;59320;52.316;10.870;2024-01-06T01:43:53;5.70;99.90
70706;DHT22;59320;52.316;10.870;2024-01-06T01:46:25;5.70;99.90
70706;DHT22;59320;52.316;10.870;2024-01-06T01:48:52;5.80;99.90
70706;DHT22;59320;52.316;10.870;2024-01-06T01:51:20;5.70;99.90
70706;DHT22;59320;52.316;10.870;2024-01-06T01:53:50;5.70;99.90
70706;DHT22;59320;52.316;10.870;2024-01-06T01:56:18;5.60;99.90
70706;DHT22;59320;52.316;10.870;2024-01-06T01:58:46;5.60;99.90
70706;DHT22;59320;52.316;10.870;2024-01-06T02:01:14;5.60;99.90
70706;DHT22;59320;52.316;10.870;2024-01-06T02:03:41;5.60;99.90
70706;DHT22;59320;52.316;10.870;2024-01-06T02:06:09;5.50;99.90
70706;DHT22;59320;52.316;10.870;2024-01-06T02:08:36;5.50;99.90
70706;DHT22;59320;52.316;10.870;2024-01-06T02:11:05;5.50;99.90
70706;DHT22;59320;52.316;10.870;2024-01-06T02:13:33;5.50;99.90
70706;DHT22;59320;52.316;10.870;2024-01-06T02:16:01;5.40;99.90
70706;DHT22;59320;52.316;10.870;2024-01-06T02:18:29;5.30;99.90
70706;DHT22;59320;52.316;10.870;2024-01-06T02:20:58;5.30;99.90
70706;DHT22;59320;52.316;10.870;2024-01-06T02:23:28;5.40;99.90
70706;DHT22;59320;52.316;10.870;2024-01-06T02:25:55;5.40;99.90
70706;DHT22;59320;52.316;10.870;2024-01-06T02:28:23;5.30;99.90
70706;DHT22;59320;52.316;10.870;2024-01-06T02:30:50;5.30;99.90
70706;DHT22;59320;52.316;10.870;2024-01-06T02:33:17;5.20;99.90
70706;DHT22;59320;52.316;10.870;2024-01-06T02:35:45;5.30;99.90
70706;DHT22;59320;52.316;10.870;2024-01-06T02:38:12;5.30;99.90
70706;DHT22;59320;52.316;10.870;2024-01-06T02:40:41;5.40;99.90
70706;DHT22;59320;52.316;10.870;2024-01-06T02:43:09;5.50;99.90
70706;DHT22;59320;52.316;10.870;2024-01-06T02:45:36;5.30;99.90
70706;DHT22;59320;52.316;10.870;2024-01-06T02:48:04;5.30;99.90
70706;DHT22;59320;52.316;10.870;2024-01-06T02:50:31;5.20;99.90
70706;DHT22;59320;52.316;10.870;2024-01-06T02:52:58;5.30;99.90
70706;DHT22;59320;52.316;10.870;2024-01-06T02:55:25;5.30;99.90
70706;DHT22;59320;52.316;10.870;2024-01-06T02:57:54;5.30;99.90
70706;DHT22;59320;52.316;10.870;2024-01-06T03:00:21;5.40;99.90
70706;DHT22;59320;52.316;10.870;2024-01-06T03:02:48;5.40;99.90
70706;DHT22;59320;52.316;10.870;2024-01-06T03:05:15;5.30;99.90
70706;DHT22;59320;52.316;10.870;2024-01-06T03:07:42;5.30;99.90
70706;DHT22;59320;52.316;10.870;2024-01-06T03:10:10;5.20;99.90
70706;DHT22;59320;52.316;10.870;2024-01-06T03:12:37;5.30;99.90
70706;DHT22;59320;52.316;10.870;2024-01-06T03:15:07;5.30;99.90
70706;DHT22;59320;52.316;10.870;2024-01-06T03:17:34;5.30;99.90
70706;DHT22;59320;52.316;10.870;2024-01-06T03:20:02;5.30;99.90
70706;DHT22;59320;52.316;10.870;2024-01-06T03:22:29;5.30;99.90
70706;DHT22;59320;52.316;10.870;2024-01-06T03:24:56;5.30;99.90
70706;DHT22;59320;52.316;10.870;2024-01-06T03:27:23;5.30;99.90
70706;DHT22;59320;52.316;10.870;2024-01-06T03:29:51;5.30;99.90
70706;DHT22;59320;52.316;10.870;2024-01-06T03:32:20;5.40;99.90
70706;DHT22;59320;52.316;10.870;2024-01-06T03:34:47;5.40;99.90
70706;DHT22;59320;52.316;10.870;2024-01-06T03:37:14;5.40;99.90
70706;DHT22;59320;52.316;10.870;2024-01-06T03:39:41;5.40;99.90
70706;DHT22;59320;52.316;10.870;2024-01-06T03:42:08;5.40;99.90
70706;DHT22;59320;52.316;10.870;2024-01-06T03:44:35;5.50;99.90
70706;DHT22;59320;52.316;10.870;2024-01-06T03:47:03;5.40;99.90
70706;DHT22;59320;52.316;10.870;2024-01-06T03:49:31;5.40;99.90
70706;DHT22;59320;52.316;10.870;2024-01-06T03:51:59;5.40;99.90
70706;DHT22;59320;52.316;10.870;2024-01-06T03:54:26;5.30;99.90
70706;DHT22;59320;52.316;10.870;2024-01-06T03:56:53;5.40;99.90
70706;DHT22;59320;52.316;10.870;2024-01-06T03:59:20;5.30;99.90
70706;DHT22;59320;52.316;10.870;2024-01-06T04:01:47;5.40;99.90
70706;DHT22;59320;52.316;10.870;2024-01-06T04:04:14;5.40;99.90
70706;DHT22;59320;52.316;10.870;2024-01-06T04:06:43;5.40;99.90
70706;DHT22;59320;52.316;10.870;2024-01-06T04:09:10;5.30;99.90
70706;DHT22;59320;52.316;10.870;2024-01-06T04:11:37;5.40;99.90
70706;DHT22;59320;52.316;10.870;2024-01-06T04:14:04;5.40;99.90
70706;DHT22;59320;52.316;10.870;2024-01-06T04:16:32;5.30;99.90
70706;DHT22;59320;52.316;10.870;2024-01-06T04:18:59;5.30;99.90
70706;DHT22;59320;52.316;10.870;2024-01-06T04:21:26;5.30;99.90
70706;DHT22;59320;52.316;10.870;2024-01-06T04:23:54;5.40;99.90
70706;DHT22;59320;52.316;10.870;2024-01-06T04:26:22;5.40;99.90
70706;DHT22;59320;52.316;10.870;2024-01-06T04:28:50;5.40;99.90
70706;DHT22;59320;52.316;10.870;2024-01-06T04:31:17;5.30;99.90
70706;DHT22;59320;52.316;10.870;2024-01-06T04:33:44;5.30;99.90
70706;DHT22;59320;52.316;10.870;2024-01-06T04:36:11;5.30;99.90
70706;DHT22;59320;52.316;10.870;2024-01-06T04:38:38;5.30;99.90
70706;DHT22;59320;52.316;10.870;2024-01-06T04:41:07;5.20;99.90
70706;DHT22;59320;52.316;10.870;2024-01-06T04:43:34;5.30;99.90
70706;DHT22;59320;52.316;10.870;2024-01-06T04:46:01;5.30;99.90
70706;DHT22;59320;52.316;10.870;2024-01-06T04:48:28;5.30;99.90
70706;DHT22;59320;52.316;10.870;2024-01-06T04:50:56;5.40;99.90
70706;DHT22;59320;52.316;10.870;2024-01-06T04:53:23;5.40;99.90
70706;DHT22;59320;52.316;10.870;2024-01-06T04:55:50;5.30;99.90
70706;DHT22;59320;52.316;10.870;2024-01-06T04:58:19;5.20;99.90
70706;DHT22;59320;52.316;10.870;2024-01-06T05:00:46;5.10;99.90
70706;DHT22;59320;52.316;10.870;2024-01-06T05:03:14;5.10;99.90
70706;DHT22;59320;52.316;10.870;2024-01-06T05:05:41;5.10;99.90
70706;DHT22;59320;52.316;10.870;2024-01-06T05:08:08;5.10;99.90
70706;DHT22;59320;52.316;10.870;2024-01-06T05:10:35;5.10;99.90
70706;DHT22;59320;52.316;10.870;2024-01-06T05:13:03;5.10;99.90
70706;DHT22;59320;52.316;10.870;2024-01-06T05:15:31;5.10;99.90
70706;DHT22;59320;52.316;10.870;2024-01-06T05:17:58;5.10;99.90
70706;DHT22;59320;52.316;10.870;2024-01-06T05:20:25;5.10;99.90
70706;DHT22;59320;52.316;10.870;2024-01-06T05:22:53;5.00;99.90
70706;DHT22;59320;52.316;10.870;2024-01-06T05:25:20;5.00;99.90
70706;DHT22;59320;52.316;10.870;2024-01-06T05:27:47;5.10;99.90
70706;DHT22;59320;52.316;10.870;2024-01-06T05:30:14;5.20;99.90
70706;DHT22;59320;52.316;10.870;2024-01-06T05:32:43;5.20;99.90
70706;DHT22;59320;52.316;10.870;2024-01-06T05:35:10;5.20;99.90
70706;DHT22;59320;52.316;10.870;2024-01-06T05:37:37;5.20;99.90
70706;DHT22;59320;52.316;10.870;2024-01-06T05:40:07;5.10;99.90
70706;DHT22;59320;52.316;10.870;2024-01-06T05:42:34;5.10;99.90
70706;DHT22;59320;52.316;10.870;2024-01-06T05:45:01;5.10;99.90
70706;DHT22;59320;52.316;10.870;2024-01-06T05:47:29;5.10;99.90
70706;DHT22;59320;52.316;10.870;2024-01-06T05:49:58;5.10;99.90
70706;DHT22;59320;52.316;10.870;2024-01-06T05:52:26;5.10;99.90
70706;DHT22;59320;52.316;10.870;2024-01-06T05:54:53;5.10;99.90
70706;DHT22;59320;52.316;10.870;2024-01-06T05:57:20;5.10;99.90
70706;DHT22;59320;52.316;10.870;2024-01-06T05:59:47;5.10;99.90
70706;DHT22;59320;52.316;10.870;2024-01-06T06:02:14;5.00;99.90
70706;DHT22;59320;52.316;10.870;2024-01-06T06:04:42;5.00;99.90
70706;DHT22;59320;52.316;10.870;2024-01-06T06:07:11;5.00;99.90
70706;DHT22;59320;52.316;10.870;2024-01-06T06:09:38;5.00;99.90
70706;DHT22;59320;52.316;10.870;2024-01-06T06:12:06;5.00;99.90
70706;DHT22;59320;52.316;10.870;2024-01-06T06:14:33;5.00;99.90
70706;DHT22;59320;52.316;10.870;2024-01-06T06:17:00;5.10;99.90
70706;DHT22;59320;52.316;10.870;2024-01-06T06:19:28;5.20;99.90
70706;DHT22;59320;52.316;10.870;2024-01-06T06:21:55;5.20;99.90
70706;DHT22;59320;52.316;10.870;2024-01-06T06:24:24;5.30;99.90
70706;DHT22;59320;52.316;10.870;2024-01-06T06:26:52;5.30;99.90
70706;DHT22;59320;52.316;10.870;2024-01-06T06:29:19;5.20;99.90
70706;DHT22;59320;52.316;10.870;2024-01-06T06:31:46;5.20;99.90
70706;DHT22;59320;52.316;10.870;2024-01-06T06:34:14;5.20;99.90
70706;DHT22;59320;52.316;10.870;2024-01-06T06:36:41;5.10;99.90
70706;DHT22;59320;52.316;10.870;2024-01-06T06:39:08;5.10;99.90
70706;DHT22;59320;52.316;10.870;2024-01-06T06:41:37;5.20;99.90
70706;DHT22;59320;52.316;10.870;2024-01-06T06:44:04;5.20;99.90
70706;DHT22;59320;52.316;10.870;2024-01-06T06:46:32;5.30;99.90
70706;DHT22;59320;52.316;10.870;2024-01-06T06:48:59;5.20;99.90
70706;DHT22;59320;52.316;10.870;2024-01-06T06:51:26;5.20;99.90
70706;DHT22;59320;52.316;10.870;2024-01-06T06:53:54;5.20;99.90
70706;DHT22;59320;52.316;10.870;2024-01-06T06:56:22;5.10;99.90
70706;DHT22;59320;52.316;10.870;2024-01-06T06:58:51;5.10;99.90
70706;DHT22;59320;52.316;10.870;2024-01-06T07:01:18;5.10;99.90
70706;DHT22;59320;52.316;10.870;2024-01-06T07:03:45;5.10;99.90
70706;DHT22;59320;52.316;10.870;2024-01-06T07:06:13;5.10;99.90
70706;DHT22;59320;52.316;10.870;2024-01-06T07:08:40;5.10;99.90
70706;DHT22;59320;52.316;10.870;2024-01-06T07:11:08;5.10;99.90
70706;DHT22;59320;52.316;10.870;2024-01-06T07:13:37;5.10;99.90
70706;DHT22;59320;52.316;10.870;2024-01-06T07:16:06;5.10;99.90
70706;DHT22;59320;52.316;10.870;2024-01-06T07:18:33;5.10;99.90
70706;DHT22;59320;52.316;10.870;2024-01-06T07:21:00;5.10;99.90
70706;DHT22;59320;52.316;10.870;2024-01-06T07:23:28;5.10;99.90
70706;DHT22;59320;52.316;10.870;2024-01-06T07:25:55;5.00;99.90
70706;DHT22;59320;52.316;10.870;2024-01-06T07:28:23;4.90;99.90
70706;DHT22;59320;52.316;10.870;2024-01-06T07:30:50;4.80;99.90
70706;DHT22;59320;52.316;10.870;2024-01-06T07:33:19;4.90;99.90
70706;DHT22;59320;52.316;10.870;2024-01-06T07:35:46;4.80;99.90
70706;DHT22;59320;52.316;10.870;2024-01-06T07:38:13;5.00;99.90
70706;DHT22;59320;52.316;10.870;2024-01-06T07:40:41;5.00;99.90
70706;DHT22;59320;52.316;10.870;2024-01-06T07:43:10;4.90;99.90
70706;DHT22;59320;52.316;10.870;2024-01-06T07:45:37;5.00;99.90
70706;DHT22;59320;52.316;10.870;2024-01-06T07:48:05;5.10;99.90
70706;DHT22;59320;52.316;10.870;2024-01-06T07:50:33;5.10;99.90
70706;DHT22;59320;52.316;10.870;2024-01-06T07:53:01;5.00;99.90
70706;DHT22;59320;52.316;10.870;2024-01-06T07:55:28;5.00;99.90
70706;DHT22;59320;52.316;10.870;2024-01-06T07:57:55;4.90;99.90
70706;DHT22;59320;52.316;10.870;2024-01-06T08:00:22;4.90;99.90
70706;DHT22;59320;52.316;10.870;2024-01-06T08:02:50;4.90;99.90
70706;DHT22;59320;52.316;10.870;2024-01-06T08:05:17;4.90;99.90
70706;DHT22;59320;52.316;10.870;2024-01-06T08:07:46;4.90;99.90
70706;DHT22;59320;52.316;10.870;2024-01-06T08:10:13;5.00;99.90
70706;DHT22;59320;52.316;10.870;2024-01-06T08:12:40;5.10;99.90
70706;DHT22;59320;52.316;10.870;2024-01-06T08:15:08;5.10;99.90
70706;DHT22;59320;52.316;10.870;2024-01-06T08:17:35;5.10;99.90
70706;DHT22;59320;52.316;10.870;2024-01-06T08:20:03;5.00;99.90
70706;DHT22;59320;52.316;10.870;2024-01-06T08:22:31;5.10;99.90
70706;DHT22;59320;52.316;10.870;2024-01-06T08:25:00;5.00;99.90
70706;DHT22;59320;52.316;10.870;2024-01-06T08:27:28;5.00;99.90
70706;DHT22;59320;52.316;10.870;2024-01-06T08:29:55;5.10;99.90
70706;DHT22;59320;52.316;10.870;2024-01-06T08:32:22;5.00;99.90
70706;DHT22;59320;52.316;10.870;2024-01-06T08:34:50;4.90;99.90
70706;DHT22;59320;52.316;10.870;2024-01-06T08:37:17;4.80;99.90
70706;DHT22;59320;52.316;10.870;2024-01-06T08:39:45;4.70;99.90
70706;DHT22;59320;52.316;10.870;2024-01-06T08:42:13;4.80;99.90
70706;DHT22;59320;52.316;10.870;2024-01-06T08:44:40;4.80;99.90
70706;DHT22;59320;52.316;10.870;2024-01-06T08:47:09;4.80;99.90
70706;DHT22;59320;52.316;10.870;2024-01-06T08:49:36;4.70;99.90
70706;DHT22;59320;52.316;10.870;2024-01-06T08:52:04;4.70;99.90
70706;DHT22;59320;52.316;10.870;2024-01-06T08:54:32;4.80;99.90
70706;DHT22;59320;52.316;10.870;2024-01-06T08:56:59;4.80;99.90
70706;DHT22;59320;52.316;10.870;2024-01-06T08:59:27;4.90;99.90
70706;DHT22;59320;52.316;10.870;2024-01-06T09:01:55;4.70;99.90
70706;DHT22;59320;52.316;10.870;2024-01-06T09:04:22;4.70;99.90
70706;DHT22;59320;52.316;10.870;2024-01-06T09:06:49;4.70;99.90
70706;DHT22;59320;52.316;10.870;2024-01-06T09:09:17;4.70;99.90
70706;DHT22;59320;52.316;10.870;2024-01-06T09:11:44;4.70;99.90
70706;DHT22;59320;52.316;10.870;2024-01-06T09:14:12;4.70;99.90
70706;DHT22;59320;52.316;10.870;2024-01-06T09:16:40;4.80;99.90
70706;DHT22;59320;52.316;10.870;2024-01-06T09:19:07;4.80;99.90
70706;DHT22;59320;52.316;10.870;2024-01-06T09:21:35;4.80;99.90
70706;DHT22;59320;52.316;10.870;2024-01-06T09:24:02;4.70;99.90
70706;DHT22;59320;52.316;10.870;2024-01-06T09:26:32;4.70;99.90
70706;DHT22;59320;52.316;10.870;2024-01-06T09:28:59;4.60;99.90
70706;DHT22;59320;52.316;10.870;2024-01-06T09:31:27;4.50;99.90
70706;DHT22;59320;52.316;10.870;2024-01-06T09:33:55;4.50;99.90
70706;DHT22;59320;52.316;10.870;2024-01-06T09:36:22;4.40;99.90
70706;DHT22;59320;52.316;10.870;2024-01-06T09:38:49;4.40;99.90
70706;DHT22;59320;52.316;10.870;2024-01-06T09:41:16;4.30;99.90
70706;DHT22;59320;52.316;10.870;2024-01-06T09:43:44;4.40;99.90
70706;DHT22;59320;52.316;10.870;2024-01-06T09:46:26;4.40;99.90
70706;DHT22;59320;52.316;10.870;2024-01-06T09:48:56;4.50;99.90
70706;DHT22;59320;52.316;10.870;2024-01-06T09:51:25;4.60;99.90
70706;DHT22;59320;52.316;10.870;2024-01-06T09:53:56;4.60;99.90
70706;DHT22;59320;52.316;10.870;2024-01-06T09:56:25;4.70;99.90
70706;DHT22;59320;52.316;10.870;2024-01-06T09:58:52;4.80;99.90
70706;DHT22;59320;52.316;10.870;2024-01-06T10:01:20;4.70;99.90
70706;DHT22;59320;52.316;10.870;2024-01-06T10:03:47;4.70;99.90
70706;DHT22;59320;52.316;10.870;2024-01-06T10:06:17;4.60;99.90
70706;DHT22;59320;52.316;10.870;2024-01-06T10:08:44;4.60;99.90
70706;DHT22;59320;52.316;10.870;2024-01-06T10:11:11;4.70;99.90
70706;DHT22;59320;52.316;10.870;2024-01-06T10:13:40;4.80;99.90
70706;DHT22;59320;52.316;10.870;2024-01-06T10:16:07;4.70;99.90
70706;DHT22;59320;52.316;10.870;2024-01-06T10:18:34;4.50;99.90
70706;DHT22;59320;52.316;10.870;2024-01-06T10:21:03;4.50;99.90
70706;DHT22;59320;52.316;10.870;2024-01-06T10:23:33;4.40;99.90
70706;DHT22;59320;52.316;10.870;2024-01-06T10:26:00;4.30;99.90
70706;DHT22;59320;52.316;10.870;2024-01-06T10:28:28;4.30;99.90
70706;DHT22;59320;52.316;10.870;2024-01-06T10:30:56;4.30;99.90
70706;DHT22;59320;52.316;10.870;2024-01-06T10:33:25;4.30;99.90
70706;DHT22;59320;52.316;10.870;2024-01-06T10:35:53;4.40;99.90
70706;DHT22;59320;52.316;10.870;2024-01-06T10:38:21;4.40;99.90
70706;DHT22;59320;52.316;10.870;2024-01-06T10:41:08;4.40;99.90
70706;DHT22;59320;52.316;10.870;2024-01-06T10:43:36;4.50;99.90
70706;DHT22;59320;52.316;10.870;2024-01-06T10:46:07;4.60;99.90
70706;DHT22;59320;52.316;10.870;2024-01-06T10:48:37;4.60;99.90
70706;DHT22;59320;52.316;10.870;2024-01-06T10:51:08;4.50;99.90
70706;DHT22;59320;52.316;10.870;2024-01-06T10:53:36;4.40;99.90
70706;DHT22;59320;52.316;10.870;2024-01-06T10:56:05;4.30;99.90
70706;DHT22;59320;52.316;10.870;2024-01-06T10:58:35;4.30;99.90
70706;DHT22;59320;52.316;10.870;2024-01-06T11:01:04;4.40;99.90
70706;DHT22;59320;52.316;10.870;2024-01-06T11:03:32;4.40;99.90
70706;DHT22;59320;52.316;10.870;2024-01-06T11:06:00;4.40;99.90
70706;DHT22;59320;52.316;10.870;2024-01-06T11:08:28;4.40;99.90
70706;DHT22;59320;52.316;10.870;2024-01-06T11:10:57;4.50;99.90
70706;DHT22;59320;52.316;10.870;2024-01-06T11:13:25;4.50;99.90
70706;DHT22;59320;52.316;10.870;2024-01-06T11:15:53;4.50;99.90
70706;DHT22;59320;52.316;10.870;2024-01-06T11:18:34;4.40;99.90
70706;DHT22;59320;52.316;10.870;2024-01-06T11:21:17;4.30;99.90
70706;DHT22;59320;52.316;10.870;2024-01-06T11:24:15;4.30;99.90
70706;DHT22;59320;52.316;10.870;2024-01-06T11:26:44;4.30;99.90
70706;DHT22;59320;52.316;10.870;2024-01-06T11:29:11;4.20;99.90
70706;DHT22;59320;52.316;10.870;2024-01-06T11:31:40;4.20;99.90
70706;DHT22;59320;52.316;10.870;2024-01-06T11:34:14;4.10;99.90
70706;DHT22;59320;52.316;10.870;2024-01-06T11:36:43;4.20;99.90
70706;DHT22;59320;52.316;10.870;2024-01-06T11:39:34;4.20;99.90
70706;DHT22;59320;52.316;10.870;2024-01-06T11:42:02;4.10;99.90
70706;DHT22;59320;52.316;10.870;2024-01-06T11:44:33;4.10;99.90
70706;DHT22;59320;52.316;10.870;2024-01-06T11:47:02;4.10;99.90
70706;DHT22;59320;52.316;10.870;2024-01-06T11:49:31;4.10;99.90
70706;DHT22;59320;52.316;10.870;2024-01-06T11:51:58;4.10;99.90
70706;DHT22;59320;52.316;10.870;2024-01-06T11:54:26;4.10;99.90
70706;DHT22;59320;52.316;10.870;2024-01-06T11:56:53;4.10;99.90
70706;DHT22;59320;52.316;10.870;2024-01-06T11:59:22;4.10;99.90
70706;DHT22;59320;52.316;10.870;2024-01-06T12:01:49;4.20;99.90
70706;DHT22;59320;52.316;10.870;2024-01-06T12:04:18;4.30;99.90
70706;DHT22;59320;52.316;10.870;2024-01-06T12:06:48;4.20;99.90
70706;DHT22;59320;52.316;10.870;2024-01-06T12:09:17;4.30;99.90
70706;DHT22;59320;52.316;10.870;2024-01-06T12:11:46;4.20;99.90
70706;DHT22;59320;52.316;10.870;2024-01-06T12:14:13;4.20;99.90
70706;DHT22;59320;52.316;10.870;2024-01-06T12:16:42;4.20;99.90
70706;DHT22;59320;52.316;10.870;2024-01-06T12:19:11;4.10;99.90
70706;DHT22;59320;52.316;10.870;2024-01-06T12:21:40;4.00;99.90
70706;DHT22;59320;52.316;10.870;2024-01-06T12:24:16;4.00;99.90
70706;DHT22;59320;52.316;10.870;2024-01-06T12:26:46;3.90;99.90
70706;DHT22;59320;52.316;10.870;2024-01-06T12:29:13;3.90;99.90
70706;DHT22;59320;52.316;10.870;2024-01-06T12:31:41;3.80;99.90
70706;DHT22;59320;52.316;10.870;2024-01-06T12:34:08;3.80;99.90
70706;DHT22;59320;52.316;10.870;2024-01-06T12:36:36;3.80;99.90
70706;DHT22;59320;52.316;10.870;2024-01-06T12:39:10;3.80;99.90
70706;DHT22;59320;52.316;10.870;2024-01-06T12:41:39;3.70;99.90
70706;DHT22;59320;52.316;10.870;2024-01-06T12:44:06;3.70;99.90
70706;DHT22;59320;52.316;10.870;2024-01-06T12:46:34;3.70;99.90
70706;DHT22;59320;52.316;10.870;2024-01-06T12:49:02;3.70;99.90
70706;DHT22;59320;52.316;10.870;2024-01-06T12:51:29;3.60;99.90
70706;DHT22;59320;52.316;10.870;2024-01-06T12:53:56;3.60;99.90
70706;DHT22;59320;52.316;10.870;2024-01-06T12:56:25;3.60;99.90
70706;DHT22;59320;52.316;10.870;2024-01-06T12:58:52;3.70;99.90
70706;DHT22;59320;52.316;10.870;2024-01-06T13:01:18;3.80;99.90
70706;DHT22;59320;52.316;10.870;2024-01-06T13:03:46;3.90;99.90
70706;DHT22;59320;52.316;10.870;2024-01-06T13:06:13;3.70;99.90
70706;DHT22;59320;52.316;10.870;2024-01-06T13:08:42;3.60;99.90
70706;DHT22;59320;52.316;10.870;2024-01-06T13:11:09;3.60;99.90
70706;DHT22;59320;52.316;10.870;2024-01-06T13:13:38;3.70;99.90
70706;DHT22;59320;52.316;10.870;2024-01-06T13:16:06;3.80;99.90
70706;DHT22;59320;52.316;10.870;2024-01-06T13:18:33;3.90;99.90
70706;DHT22;59320;52.316;10.870;2024-01-06T13:21:00;3.90;99.90
70706;DHT22;59320;52.316;10.870;2024-01-06T13:23:27;3.90;99.90
70706;DHT22;59320;52.316;10.870;2024-01-06T13:25:54;3.80;99.90
70706;DHT22;59320;52.316;10.870;2024-01-06T13:28:23;3.80;99.90
70706;DHT22;59320;52.316;10.870;2024-01-06T13:30:52;3.80;99.90
70706;DHT22;59320;52.316;10.870;2024-01-06T13:33:19;3.80;99.90
70706;DHT22;59320;52.316;10.870;2024-01-06T13:35:46;3.80;99.90
70706;DHT22;59320;52.316;10.870;2024-01-06T13:38:14;3.70;99.90
70706;DHT22;59320;52.316;10.870;2024-01-06T13:40:41;3.60;99.90
70706;DHT22;59320;52.316;10.870;2024-01-06T13:43:10;3.60;99.90
70706;DHT22;59320;52.316;10.870;2024-01-06T13:45:42;3.50;99.90
70706;DHT22;59320;52.316;10.870;2024-01-06T13:48:12;3.40;99.90
70706;DHT22;59320;52.316;10.870;2024-01-06T13:50:40;3.40;99.90
70706;DHT22;59320;52.316;10.870;2024-01-06T13:53:08;3.40;99.90
70706;DHT22;59320;52.316;10.870;2024-01-06T13:55:35;3.40;99.90
70706;DHT22;59320;52.316;10.870;2024-01-06T13:58:03;3.40;99.90
70706;DHT22;59320;52.316;10.870;2024-01-06T14:00:30;3.40;99.90
70706;DHT22;59320;52.316;10.870;2024-01-06T14:02:58;3.30;99.90
70706;DHT22;59320;52.316;10.870;2024-01-06T14:05:27;3.40;99.90
70706;DHT22;59320;52.316;10.870;2024-01-06T14:07:54;3.40;99.90
70706;DHT22;59320;52.316;10.870;2024-01-06T14:10:21;3.40;99.90
70706;DHT22;59320;52.316;10.870;2024-01-06T14:12:48;3.40;99.90
70706;DHT22;59320;52.316;10.870;2024-01-06T14:15:16;3.40;99.90
70706;DHT22;59320;52.316;10.870;2024-01-06T14:17:43;3.30;99.90
70706;DHT22;59320;52.316;10.870;2024-01-06T14:20:15;3.20;99.90
70706;DHT22;59320;52.316;10.870;2024-01-06T14:22:44;3.20;99.90
70706;DHT22;59320;52.316;10.870;2024-01-06T14:25:12;3.10;99.90
70706;DHT22;59320;52.316;10.870;2024-01-06T14:27:40;3.10;99.90
70706;DHT22;59320;52.316;10.870;2024-01-06T14:30:08;3.10;99.90
70706;DHT22;59320;52.316;10.870;2024-01-06T14:32:35;3.10;99.90
70706;DHT22;59320;52.316;10.870;2024-01-06T14:35:04;3.10;99.90
70706;DHT22;59320;52.316;10.870;2024-01-06T14:37:33;3.00;99.90
70706;DHT22;59320;52.316;10.870;2024-01-06T14:40:02;2.90;99.90
70706;DHT22;59320;52.316;10.870;2024-01-06T14:42:31;3.00;99.90
70706;DHT22;59320;52.316;10.870;2024-01-06T14:44:58;3.00;99.90
70706;DHT22;59320;52.316;10.870;2024-01-06T14:47:26;3.00;99.90
70706;DHT22;59320;52.316;10.870;2024-01-06T14:49:53;3.00;99.90
70706;DHT22;59320;52.316;10.870;2024-01-06T14:52:20;3.00;99.90
70706;DHT22;59320;52.316;10.870;2024-01-06T14:54:48;2.90;99.90
70706;DHT22;59320;52.316;10.870;2024-01-06T14:57:17;3.00;99.90
70706;DHT22;59320;52.316;10.870;2024-01-06T14:59:44;3.00;99.90
70706;DHT22;59320;52.316;10.870;2024-01-06T15:02:12;2.90;99.90
70706;DHT22;59320;52.316;10.870;2024-01-06T15:04:39;3.00;99.90
70706;DHT22;59320;52.316;10.870;2024-01-06T15:07:07;3.10;99.90
70706;DHT22;59320;52.316;10.870;2024-01-06T15:09:38;3.00;99.90
70706;DHT22;59320;52.316;10.870;2024-01-06T15:12:06;3.00;99.90
70706;DHT22;59320;52.316;10.870;2024-01-06T15:14:35;2.90;99.90
70706;DHT22;59320;52.316;10.870;2024-01-06T15:17:03;2.90;99.90
70706;DHT22;59320;52.316;10.870;2024-01-06T15:19:30;2.90;99.90
70706;DHT22;59320;52.316;10.870;2024-01-06T15:21:59;2.90;99.90
70706;DHT22;59320;52.316;10.870;2024-01-06T15:24:26;2.90;99.90
70706;DHT22;59320;52.316;10.870;2024-01-06T15:26:54;2.90;99.90
70706;DHT22;59320;52.316;10.870;2024-01-06T15:29:21;3.00;99.90
70706;DHT22;59320;52.316;10.870;2024-01-06T15:31:49;2.90;99.90
70706;DHT22;59320;52.316;10.870;2024-01-06T15:34:19;3.00;99.90